sensor_id;sensor_type;location;lat;lon;timestamp;P1;durP1;ratioP1;P2;durP2;ratioP2
9938;SDS011;5008;50.656;7.188;2022-07-11T00:02:01;3.60;;;3.20;;
9938;SDS011;5008;50.656;7.188;2022-07-11T00:04:29;3.95;;;3.65;;
9938;SDS011;5008;50.656;7.188;2022-07-11T00:06:56;4.75;;;2.80;;
9938;SDS011;5008;50.656;7.188;2022-07-11T00:09:23;3.50;;;3.20;;
9938;SDS011;5008;50.656;7.188;2022-07-11T00:11:50;3.33;;;3.03;;
9938;SDS011;5008;50.656;7.188;2022-07-11T00:14:17;3.33;;;3.00;;
9938;SDS011;5008;50.656;7.188;2022-07-11T00:16:44;3.25;;;2.95;;
9938;SDS011;5008;50.656;7.188;2022-07-11T00:19:12;3.45;;;3.15;;
9938;SDS011;5008;50.656;7.188;2022-07-11T00:21:39;2.95;;;2.75;;
9938;SDS011;5008;50.656;7.188;2022-07-11T00:24:06;3.33;;;3.13;;
9938;SDS011;5008;50.656;7.188;2022-07-11T00:26:33;3.88;;;3.58;;
9938;SDS011;5008;50.656;7.188;2022-07-11T00:29:00;3.70;;;3.40;;
9938;SDS011;5008;50.656;7.188;2022-07-11T00:31:27;4.28;;;3.15;;
9938;SDS011;5008;50.656;7.188;2022-07-11T00:33:54;3.60;;;3.30;;
9938;SDS011;5008;50.656;7.188;2022-07-11T00:36:22;3.35;;;3.15;;
9938;SDS011;5008;50.656;7.188;2022-07-11T00:38:49;4.20;;;3.30;;
9938;SDS011;5008;50.656;7.188;2022-07-11T00:41:16;3.42;;;3.13;;
9938;SDS011;5008;50.656;7.188;2022-07-11T00:43:49;3.33;;;3.10;;
9938;SDS011;5008;50.656;7.188;2022-07-11T00:46:17;6.50;;;3.20;;
9938;SDS011;5008;50.656;7.188;2022-07-11T00:48:44;3.67;;;3.40;;
9938;SDS011;5008;50.656;7.188;2022-07-11T00:51:11;3.40;;;3.10;;
9938;SDS011;5008;50.656;7.188;2022-07-11T00:53:40;3.33;;;3.03;;
9938;SDS011;5008;50.656;7.188;2022-07-11T00:56:08;3.30;;;3.10;;
9938;SDS011;5008;50.656;7.188;2022-07-11T00:58:35;3.20;;;2.90;;
9938;SDS011;5008;50.656;7.188;2022-07-11T01:01:02;3.20;;;2.92;;
9938;SDS011;5008;50.656;7.188;2022-07-11T01:03:30;3.10;;;2.90;;
9938;SDS011;5008;50.656;7.188;2022-07-11T01:06:00;3.10;;;2.90;;
9938;SDS011;5008;50.656;7.188;2022-07-11T01:08:26;3.28;;;3.08;;
9938;SDS011;5008;50.656;7.188;2022-07-11T01:10:57;3.08;;;2.78;;
9938;SDS011;5008;50.656;7.188;2022-07-11T01:13:26;3.60;;;3.30;;
9938;SDS011;5008;50.656;7.188;2022-07-11T01:16:05;3.50;;;3.22;;
9938;SDS011;5008;50.656;7.188;2022-07-11T01:18:33;3.75;;;3.28;;
9938;SDS011;5008;50.656;7.188;2022-07-11T01:20:59;3.25;;;2.83;;
9938;SDS011;5008;50.656;7.188;2022-07-11T01:23:28;3.13;;;2.92;;
9938;SDS011;5008;50.656;7.188;2022-07-11T01:25:55;3.15;;;2.85;;
9938;SDS011;5008;50.656;7.188;2022-07-11T01:28:22;2.90;;;2.70;;
9938;SDS011;5008;50.656;7.188;2022-07-11T01:30:48;3.38;;;2.83;;
9938;SDS011;5008;50.656;7.188;2022-07-11T01:33:15;3.05;;;2.85;;
9938;SDS011;5008;50.656;7.188;2022-07-11T01:35:42;4.13;;;3.10;;
9938;SDS011;5008;50.656;7.188;2022-07-11T01:38:09;3.05;;;2.80;;
9938;SDS011;5008;50.656;7.188;2022-07-11T01:40:37;3.83;;;3.13;;
9938;SDS011;5008;50.656;7.188;2022-07-11T01:43:03;3.10;;;2.83;;
9938;SDS011;5008;50.656;7.188;2022-07-11T01:45:30;3.47;;;3.13;;
9938;SDS011;5008;50.656;7.188;2022-07-11T01:47:57;3.42;;;2.70;;
9938;SDS011;5008;50.656;7.188;2022-07-11T01:50:24;3.30;;;3.00;;
9938;SDS011;5008;50.656;7.188;2022-07-11T01:52:50;3.22;;;2.92;;
9938;SDS011;5008;50.656;7.188;2022-07-11T01:55:17;3.13;;;2.90;;
9938;SDS011;5008;50.656;7.188;2022-07-11T01:57:45;3.88;;;2.90;;
9938;SDS011;5008;50.656;7.188;2022-07-11T02:00:12;6.22;;;3.00;;
9938;SDS011;5008;50.656;7.188;2022-07-11T02:02:40;3.38;;;3.00;;
9938;SDS011;5008;50.656;7.188;2022-07-11T02:05:07;3.13;;;2.92;;
9938;SDS011;5008;50.656;7.188;2022-07-11T02:07:34;2.88;;;2.60;;
9938;SDS011;5008;50.656;7.188;2022-07-11T02:10:18;2.55;;;2.42;;
9938;SDS011;5008;50.656;7.188;2022-07-11T02:12:46;3.00;;;2.80;;
9938;SDS011;5008;50.656;7.188;2022-07-11T02:15:13;3.30;;;3.00;;
9938;SDS011;5008;50.656;7.188;2022-07-11T02:17:40;3.05;;;2.50;;
9938;SDS011;5008;50.656;7.188;2022-07-11T02:20:07;3.20;;;2.50;;
9938;SDS011;5008;50.656;7.188;2022-07-11T02:22:34;2.55;;;2.35;;
9938;SDS011;5008;50.656;7.188;2022-07-11T02:25:01;2.58;;;2.38;;
9938;SDS011;5008;50.656;7.188;2022-07-11T02:27:28;2.97;;;2.70;;
9938;SDS011;5008;50.656;7.188;2022-07-11T02:29:56;2.92;;;2.72;;
9938;SDS011;5008;50.656;7.188;2022-07-11T02:32:23;2.35;;;2.25;;
9938;SDS011;5008;50.656;7.188;2022-07-11T02:34:50;2.58;;;2.38;;
9938;SDS011;5008;50.656;7.188;2022-07-11T02:37:18;3.78;;;2.60;;
9938;SDS011;5008;50.656;7.188;2022-07-11T02:39:45;3.10;;;2.75;;
9938;SDS011;5008;50.656;7.188;2022-07-11T02:42:12;3.40;;;2.60;;
9938;SDS011;5008;50.656;7.188;2022-07-11T02:44:39;3.38;;;2.88;;
9938;SDS011;5008;50.656;7.188;2022-07-11T02:47:07;5.13;;;2.35;;
9938;SDS011;5008;50.656;7.188;2022-07-11T02:49:34;2.70;;;2.50;;
9938;SDS011;5008;50.656;7.188;2022-07-11T02:52:01;2.58;;;2.38;;
9938;SDS011;5008;50.656;7.188;2022-07-11T02:54:28;3.45;;;2.80;;
9938;SDS011;5008;50.656;7.188;2022-07-11T02:56:54;3.20;;;2.38;;
9938;SDS011;5008;50.656;7.188;2022-07-11T02:59:21;2.72;;;2.53;;
9938;SDS011;5008;50.656;7.188;2022-07-11T03:01:48;4.60;;;2.42;;
9938;SDS011;5008;50.656;7.188;2022-07-11T03:04:17;3.28;;;2.60;;
9938;SDS011;5008;50.656;7.188;2022-07-11T03:06:44;2.28;;;2.03;;
9938;SDS011;5008;50.656;7.188;2022-07-11T03:09:11;3.42;;;2.45;;
9938;SDS011;5008;50.656;7.188;2022-07-11T03:11:38;2.72;;;2.50;;
9938;SDS011;5008;50.656;7.188;2022-07-11T03:14:04;3.03;;;2.30;;
9938;SDS011;5008;50.656;7.188;2022-07-11T03:16:31;3.53;;;2.58;;
9938;SDS011;5008;50.656;7.188;2022-07-11T03:18:59;2.38;;;2.13;;
9938;SDS011;5008;50.656;7.188;2022-07-11T03:21:27;2.95;;;2.20;;
9938;SDS011;5008;50.656;7.188;2022-07-11T03:23:54;2.50;;;2.30;;
9938;SDS011;5008;50.656;7.188;2022-07-11T03:26:20;3.17;;;2.47;;
9938;SDS011;5008;50.656;7.188;2022-07-11T03:28:47;4.53;;;2.88;;
9938;SDS011;5008;50.656;7.188;2022-07-11T03:31:14;4.82;;;2.40;;
9938;SDS011;5008;50.656;7.188;2022-07-11T03:33:41;2.85;;;2.00;;
9938;SDS011;5008;50.656;7.188;2022-07-11T03:36:08;3.50;;;2.45;;
9938;SDS011;5008;50.656;7.188;2022-07-11T03:38:36;3.08;;;2.40;;
9938;SDS011;5008;50.656;7.188;2022-07-11T03:41:03;3.80;;;2.67;;
9938;SDS011;5008;50.656;7.188;2022-07-11T03:43:30;2.92;;;2.40;;
9938;SDS011;5008;50.656;7.188;2022-07-11T03:45:57;2.72;;;2.50;;
9938;SDS011;5008;50.656;7.188;2022-07-11T03:48:24;2.50;;;2.30;;
9938;SDS011;5008;50.656;7.188;2022-07-11T03:50:51;4.15;;;2.47;;
9938;SDS011;5008;50.656;7.188;2022-07-11T03:53:17;2.80;;;2.50;;
9938;SDS011;5008;50.656;7.188;2022-07-11T03:55:46;4.43;;;2.50;;
9938;SDS011;5008;50.656;7.188;2022-07-11T03:58:12;2.70;;;2.50;;
9938;SDS011;5008;50.656;7.188;2022-07-11T04:00:39;3.17;;;2.47;;
9938;SDS011;5008;50.656;7.188;2022-07-11T04:03:06;4.72;;;2.80;;
9938;SDS011;5008;50.656;7.188;2022-07-11T04:05:33;4.10;;;2.60;;
9938;SDS011;5008;50.656;7.188;2022-07-11T04:08:00;4.50;;;2.40;;
9938;SDS011;5008;50.656;7.188;2022-07-11T04:10:27;3.72;;;2.80;;
9938;SDS011;5008;50.656;7.188;2022-07-11T04:12:55;3.20;;;2.55;;
9938;SDS011;5008;50.656;7.188;2022-07-11T04:15:22;2.50;;;2.30;;
9938;SDS011;5008;50.656;7.188;2022-07-11T04:17:49;4.95;;;3.15;;
9938;SDS011;5008;50.656;7.188;2022-07-11T04:20:16;3.70;;;3.22;;
9938;SDS011;5008;50.656;7.188;2022-07-11T04:22:42;4.43;;;3.65;;
9938;SDS011;5008;50.656;7.188;2022-07-11T04:25:09;3.53;;;2.97;;
9938;SDS011;5008;50.656;7.188;2022-07-11T04:27:36;3.42;;;3.10;;
9938;SDS011;5008;50.656;7.188;2022-07-11T04:30:05;4.88;;;2.95;;
9938;SDS011;5008;50.656;7.188;2022-07-11T04:32:32;5.90;;;3.40;;
9938;SDS011;5008;50.656;7.188;2022-07-11T04:35:00;5.45;;;3.20;;
9938;SDS011;5008;50.656;7.188;2022-07-11T04:37:27;4.00;;;3.25;;
9938;SDS011;5008;50.656;7.188;2022-07-11T04:39:54;4.05;;;3.50;;
9938;SDS011;5008;50.656;7.188;2022-07-11T04:42:21;3.72;;;3.42;;
9938;SDS011;5008;50.656;7.188;2022-07-11T04:44:48;4.07;;;3.58;;
9938;SDS011;5008;50.656;7.188;2022-07-11T04:47:16;4.30;;;3.65;;
9938;SDS011;5008;50.656;7.188;2022-07-11T04:49:44;4.57;;;3.80;;
9938;SDS011;5008;50.656;7.188;2022-07-11T04:52:11;4.93;;;4.00;;
9938;SDS011;5008;50.656;7.188;2022-07-11T04:54:38;6.32;;;4.78;;
9938;SDS011;5008;50.656;7.188;2022-07-11T04:57:05;5.70;;;4.30;;
9938;SDS011;5008;50.656;7.188;2022-07-11T04:59:32;6.32;;;4.30;;
9938;SDS011;5008;50.656;7.188;2022-07-11T05:01:59;5.38;;;4.68;;
9938;SDS011;5008;50.656;7.188;2022-07-11T05:04:27;4.93;;;3.90;;
9938;SDS011;5008;50.656;7.188;2022-07-11T05:06:54;6.25;;;4.50;;
9938;SDS011;5008;50.656;7.188;2022-07-11T05:09:21;5.03;;;4.38;;
9938;SDS011;5008;50.656;7.188;2022-07-11T05:11:48;5.20;;;4.15;;
9938;SDS011;5008;50.656;7.188;2022-07-11T05:14:14;6.70;;;4.00;;
9938;SDS011;5008;50.656;7.188;2022-07-11T05:16:41;6.15;;;4.20;;
9938;SDS011;5008;50.656;7.188;2022-07-11T05:19:08;6.85;;;4.35;;
9938;SDS011;5008;50.656;7.188;2022-07-11T05:21:36;9.20;;;4.88;;
9938;SDS011;5008;50.656;7.188;2022-07-11T05:24:03;4.72;;;4.22;;
9938;SDS011;5008;50.656;7.188;2022-07-11T05:26:31;5.13;;;4.60;;
9938;SDS011;5008;50.656;7.188;2022-07-11T05:28:58;6.30;;;4.90;;
9938;SDS011;5008;50.656;7.188;2022-07-11T05:31:24;5.45;;;4.95;;
9938;SDS011;5008;50.656;7.188;2022-07-11T05:33:52;5.53;;;4.68;;
9938;SDS011;5008;50.656;7.188;2022-07-11T05:36:19;5.53;;;4.28;;
9938;SDS011;5008;50.656;7.188;2022-07-11T05:38:47;6.00;;;4.57;;
9938;SDS011;5008;50.656;7.188;2022-07-11T05:41:14;6.93;;;5.03;;
9938;SDS011;5008;50.656;7.188;2022-07-11T05:43:40;5.53;;;5.03;;
9938;SDS011;5008;50.656;7.188;2022-07-11T05:46:07;5.50;;;5.00;;
9938;SDS011;5008;50.656;7.188;2022-07-11T05:48:34;5.53;;;5.13;;
9938;SDS011;5008;50.656;7.188;2022-07-11T05:51:01;7.22;;;5.60;;
9938;SDS011;5008;50.656;7.188;2022-07-11T05:53:28;8.20;;;6.25;;
9938;SDS011;5008;50.656;7.188;2022-07-11T05:55:56;8.30;;;7.03;;
9938;SDS011;5008;50.656;7.188;2022-07-11T05:58:23;7.32;;;6.25;;
9938;SDS011;5008;50.656;7.188;2022-07-11T06:00:50;7.15;;;6.55;;
9938;SDS011;5008;50.656;7.188;2022-07-11T06:03:16;7.15;;;6.45;;
9938;SDS011;5008;50.656;7.188;2022-07-11T06:05:43;7.50;;;6.55;;
9938;SDS011;5008;50.656;7.188;2022-07-11T06:08:10;7.40;;;6.60;;
9938;SDS011;5008;50.656;7.188;2022-07-11T06:10:56;7.88;;;7.10;;
9938;SDS011;5008;50.656;7.188;2022-07-11T06:13:23;9.00;;;7.88;;
9938;SDS011;5008;50.656;7.188;2022-07-11T06:15:49;8.70;;;7.28;;
9938;SDS011;5008;50.656;7.188;2022-07-11T06:18:16;8.95;;;8.00;;
9938;SDS011;5008;50.656;7.188;2022-07-11T06:20:43;9.65;;;8.23;;
9938;SDS011;5008;50.656;7.188;2022-07-11T06:23:10;9.02;;;8.18;;
9938;SDS011;5008;50.656;7.188;2022-07-11T06:25:37;8.40;;;7.53;;
9938;SDS011;5008;50.656;7.188;2022-07-11T06:28:05;9.38;;;7.53;;
9938;SDS011;5008;50.656;7.188;2022-07-11T06:30:32;8.70;;;7.53;;
9938;SDS011;5008;50.656;7.188;2022-07-11T06:33:00;7.75;;;6.90;;
9938;SDS011;5008;50.656;7.188;2022-07-11T06:35:26;9.23;;;7.88;;
9938;SDS011;5008;50.656;7.188;2022-07-11T06:37:53;7.82;;;7.07;;
9938;SDS011;5008;50.656;7.188;2022-07-11T06:40:21;11.23;;;6.78;;
9938;SDS011;5008;50.656;7.188;2022-07-11T06:42:48;7.82;;;6.70;;
9938;SDS011;5008;50.656;7.188;2022-07-11T06:45:16;8.52;;;6.85;;
9938;SDS011;5008;50.656;7.188;2022-07-11T06:47:43;7.68;;;6.40;;
9938;SDS011;5008;50.656;7.188;2022-07-11T06:50:10;7.63;;;6.85;;
9938;SDS011;5008;50.656;7.188;2022-07-11T06:52:38;7.65;;;6.05;;
9938;SDS011;5008;50.656;7.188;2022-07-11T06:55:05;9.52;;;6.93;;
9938;SDS011;5008;50.656;7.188;2022-07-11T06:57:32;6.95;;;5.90;;
9938;SDS011;5008;50.656;7.188;2022-07-11T06:59:59;7.80;;;6.40;;
9938;SDS011;5008;50.656;7.188;2022-07-11T07:02:27;10.00;;;6.50;;
9938;SDS011;5008;50.656;7.188;2022-07-11T07:04:55;9.02;;;6.82;;
9938;SDS011;5008;50.656;7.188;2022-07-11T07:07:23;8.00;;;6.63;;
9938;SDS011;5008;50.656;7.188;2022-07-11T07:09:50;7.55;;;6.25;;
9938;SDS011;5008;50.656;7.188;2022-07-11T07:12:17;7.75;;;6.53;;
9938;SDS011;5008;50.656;7.188;2022-07-11T07:14:44;7.05;;;6.30;;
9938;SDS011;5008;50.656;7.188;2022-07-11T07:17:11;7.40;;;6.57;;
9938;SDS011;5008;50.656;7.188;2022-07-11T07:19:39;9.20;;;7.15;;
9938;SDS011;5008;50.656;7.188;2022-07-11T07:22:10;6.40;;;5.78;;
9938;SDS011;5008;50.656;7.188;2022-07-11T07:24:49;7.07;;;6.38;;
9938;SDS011;5008;50.656;7.188;2022-07-11T07:27:20;7.05;;;6.35;;
9938;SDS011;5008;50.656;7.188;2022-07-11T07:29:55;7.82;;;6.40;;
9938;SDS011;5008;50.656;7.188;2022-07-11T07:32:25;6.90;;;6.30;;
9938;SDS011;5008;50.656;7.188;2022-07-11T07:34:54;8.18;;;6.80;;
9938;SDS011;5008;50.656;7.188;2022-07-11T07:37:27;7.90;;;6.85;;
9938;SDS011;5008;50.656;7.188;2022-07-11T07:39:53;8.80;;;7.90;;
9938;SDS011;5008;50.656;7.188;2022-07-11T07:42:20;11.85;;;9.52;;
9938;SDS011;5008;50.656;7.188;2022-07-11T07:44:47;11.57;;;9.13;;
9938;SDS011;5008;50.656;7.188;2022-07-11T07:47:16;9.30;;;7.30;;
9938;SDS011;5008;50.656;7.188;2022-07-11T07:49:49;12.57;;;10.73;;
9938;SDS011;5008;50.656;7.188;2022-07-11T07:52:17;12.93;;;11.52;;
9938;SDS011;5008;50.656;7.188;2022-07-11T07:54:47;12.02;;;8.82;;
9938;SDS011;5008;50.656;7.188;2022-07-11T07:57:14;9.45;;;8.55;;
9938;SDS011;5008;50.656;7.188;2022-07-11T07:59:41;10.93;;;8.18;;
9938;SDS011;5008;50.656;7.188;2022-07-11T08:02:08;10.02;;;8.98;;
9938;SDS011;5008;50.656;7.188;2022-07-11T08:04:34;9.90;;;8.88;;
9938;SDS011;5008;50.656;7.188;2022-07-11T08:07:03;13.98;;;10.55;;
9938;SDS011;5008;50.656;7.188;2022-07-11T08:09:31;13.02;;;11.73;;
9938;SDS011;5008;50.656;7.188;2022-07-11T08:12:08;14.07;;;12.13;;
9938;SDS011;5008;50.656;7.188;2022-07-11T08:14:47;14.07;;;12.63;;
9938;SDS011;5008;50.656;7.188;2022-07-11T08:17:13;15.23;;;13.68;;
9938;SDS011;5008;50.656;7.188;2022-07-11T08:19:40;16.50;;;14.80;;
9938;SDS011;5008;50.656;7.188;2022-07-11T08:22:07;17.95;;;16.08;;
9938;SDS011;5008;50.656;7.188;2022-07-11T08:24:38;17.63;;;15.85;;
9938;SDS011;5008;50.656;7.188;2022-07-11T08:27:05;16.88;;;15.18;;
9938;SDS011;5008;50.656;7.188;2022-07-11T08:29:32;16.67;;;14.27;;
9938;SDS011;5008;50.656;7.188;2022-07-11T08:31:59;15.68;;;14.07;;
9938;SDS011;5008;50.656;7.188;2022-07-11T08:34:25;17.92;;;16.27;;
9938;SDS011;5008;50.656;7.188;2022-07-11T08:36:52;19.40;;;17.40;;
9938;SDS011;5008;50.656;7.188;2022-07-11T08:39:19;20.60;;;18.52;;
9938;SDS011;5008;50.656;7.188;2022-07-11T08:41:47;20.60;;;18.77;;
9938;SDS011;5008;50.656;7.188;2022-07-11T08:44:15;20.27;;;18.33;;
9938;SDS011;5008;50.656;7.188;2022-07-11T08:46:42;19.75;;;17.73;;
9938;SDS011;5008;50.656;7.188;2022-07-11T08:49:10;19.30;;;17.30;;
9938;SDS011;5008;50.656;7.188;2022-07-11T08:51:38;19.63;;;17.60;;
9938;SDS011;5008;50.656;7.188;2022-07-11T08:54:05;20.17;;;18.15;;
9938;SDS011;5008;50.656;7.188;2022-07-11T08:56:32;20.45;;;18.35;;
9938;SDS011;5008;50.656;7.188;2022-07-11T08:59:00;20.30;;;18.50;;
9938;SDS011;5008;50.656;7.188;2022-07-11T09:01:28;19.55;;;17.63;;
9938;SDS011;5008;50.656;7.188;2022-07-11T09:03:56;21.17;;;19.10;;
9938;SDS011;5008;50.656;7.188;2022-07-11T09:06:23;20.63;;;18.65;;
9938;SDS011;5008;50.656;7.188;2022-07-11T09:08:50;18.42;;;16.52;;
9938;SDS011;5008;50.656;7.188;2022-07-11T09:11:17;19.20;;;17.30;;
9938;SDS011;5008;50.656;7.188;2022-07-11T09:13:44;17.83;;;16.02;;
9938;SDS011;5008;50.656;7.188;2022-07-11T09:16:12;18.23;;;16.40;;
9938;SDS011;5008;50.656;7.188;2022-07-11T09:18:39;17.92;;;16.17;;
9938;SDS011;5008;50.656;7.188;2022-07-11T09:21:09;18.30;;;16.50;;
9938;SDS011;5008;50.656;7.188;2022-07-11T09:23:55;16.77;;;15.27;;
9938;SDS011;5008;50.656;7.188;2022-07-11T09:26:41;17.30;;;15.55;;
9938;SDS011;5008;50.656;7.188;2022-07-11T09:29:09;17.55;;;15.75;;
9938;SDS011;5008;50.656;7.188;2022-07-11T09:31:38;17.65;;;15.82;;
9938;SDS011;5008;50.656;7.188;2022-07-11T09:34:06;17.00;;;15.40;;
9938;SDS011;5008;50.656;7.188;2022-07-11T09:36:34;18.02;;;16.13;;
9938;SDS011;5008;50.656;7.188;2022-07-11T09:39:06;17.45;;;15.75;;
9938;SDS011;5008;50.656;7.188;2022-07-11T09:41:35;13.18;;;12.00;;
9938;SDS011;5008;50.656;7.188;2022-07-11T09:44:12;12.95;;;11.75;;
9938;SDS011;5008;50.656;7.188;2022-07-11T09:46:42;13.43;;;12.05;;
9938;SDS011;5008;50.656;7.188;2022-07-11T09:49:11;12.90;;;11.73;;
9938;SDS011;5008;50.656;7.188;2022-07-11T09:51:38;13.65;;;12.27;;
9938;SDS011;5008;50.656;7.188;2022-07-11T09:54:06;13.32;;;11.95;;
9938;SDS011;5008;50.656;7.188;2022-07-11T09:56:35;13.10;;;11.80;;
9938;SDS011;5008;50.656;7.188;2022-07-11T09:59:05;14.52;;;13.10;;
9938;SDS011;5008;50.656;7.188;2022-07-11T10:01:33;14.63;;;13.32;;
9938;SDS011;5008;50.656;7.188;2022-07-11T10:04:01;16.08;;;14.57;;
9938;SDS011;5008;50.656;7.188;2022-07-11T10:06:30;16.60;;;15.07;;
9938;SDS011;5008;50.656;7.188;2022-07-11T10:08:57;16.45;;;14.73;;
9938;SDS011;5008;50.656;7.188;2022-07-11T10:11:23;15.45;;;14.10;;
9938;SDS011;5008;50.656;7.188;2022-07-11T10:13:50;16.48;;;14.88;;
9938;SDS011;5008;50.656;7.188;2022-07-11T10:16:22;17.45;;;15.77;;
9938;SDS011;5008;50.656;7.188;2022-07-11T10:19:05;15.48;;;14.18;;
9938;SDS011;5008;50.656;7.188;2022-07-11T10:21:41;18.05;;;16.45;;
9938;SDS011;5008;50.656;7.188;2022-07-11T10:24:17;16.05;;;14.75;;
9938;SDS011;5008;50.656;7.188;2022-07-11T10:26:54;17.90;;;16.40;;
9938;SDS011;5008;50.656;7.188;2022-07-11T10:29:27;17.23;;;15.80;;
9938;SDS011;5008;50.656;7.188;2022-07-11T10:32:03;17.45;;;15.95;;
9938;SDS011;5008;50.656;7.188;2022-07-11T10:34:32;17.08;;;15.45;;
9938;SDS011;5008;50.656;7.188;2022-07-11T10:37:00;16.50;;;15.00;;
9938;SDS011;5008;50.656;7.188;2022-07-11T10:39:28;16.60;;;15.23;;
9938;SDS011;5008;50.656;7.188;2022-07-11T10:41:55;16.40;;;15.00;;
9938;SDS011;5008;50.656;7.188;2022-07-11T10:44:23;15.35;;;14.05;;
9938;SDS011;5008;50.656;7.188;2022-07-11T10:46:52;14.63;;;13.43;;
9938;SDS011;5008;50.656;7.188;2022-07-11T10:49:22;14.98;;;13.75;;
9938;SDS011;5008;50.656;7.188;2022-07-11T10:52:02;14.52;;;13.38;;
9938;SDS011;5008;50.656;7.188;2022-07-11T10:54:33;15.75;;;14.35;;
9938;SDS011;5008;50.656;7.188;2022-07-11T10:57:13;15.82;;;14.48;;
9938;SDS011;5008;50.656;7.188;2022-07-11T10:59:56;15.63;;;14.15;;
9938;SDS011;5008;50.656;7.188;2022-07-11T11:02:24;15.20;;;14.00;;
9938;SDS011;5008;50.656;7.188;2022-07-11T11:04:52;16.15;;;14.65;;
9938;SDS011;5008;50.656;7.188;2022-07-11T11:07:31;15.80;;;14.45;;
9938;SDS011;5008;50.656;7.188;2022-07-11T11:13:17;16.60;;;14.95;;
9938;SDS011;5008;50.656;7.188;2022-07-11T11:15:46;15.38;;;14.15;;
9938;SDS011;5008;50.656;7.188;2022-07-11T11:18:33;15.73;;;14.48;;
9938;SDS011;5008;50.656;7.188;2022-07-11T11:21:21;14.93;;;13.73;;
9938;SDS011;5008;50.656;7.188;2022-07-11T11:24:02;15.85;;;14.43;;
9938;SDS011;5008;50.656;7.188;2022-07-11T11:26:49;15.77;;;14.50;;
9938;SDS011;5008;50.656;7.188;2022-07-11T11:29:18;16.65;;;15.25;;
9938;SDS011;5008;50.656;7.188;2022-07-11T11:31:50;16.52;;;15.02;;
9938;SDS011;5008;50.656;7.188;2022-07-11T11:34:19;17.45;;;16.05;;
9938;SDS011;5008;50.656;7.188;2022-07-11T11:36:51;16.27;;;14.90;;
9938;SDS011;5008;50.656;7.188;2022-07-11T11:39:27;16.52;;;15.23;;
9938;SDS011;5008;50.656;7.188;2022-07-11T11:42:05;15.63;;;14.20;;
9938;SDS011;5008;50.656;7.188;2022-07-11T11:44:47;16.05;;;14.65;;
9938;SDS011;5008;50.656;7.188;2022-07-11T11:47:20;16.20;;;14.70;;
9938;SDS011;5008;50.656;7.188;2022-07-11T11:49:47;14.57;;;13.38;;
9938;SDS011;5008;50.656;7.188;2022-07-11T11:52:14;14.32;;;13.05;;
9938;SDS011;5008;50.656;7.188;2022-07-11T11:54:43;14.18;;;13.02;;
9938;SDS011;5008;50.656;7.188;2022-07-11T11:57:16;12.93;;;11.90;;
9938;SDS011;5008;50.656;7.188;2022-07-11T11:59:43;12.88;;;11.88;;
9938;SDS011;5008;50.656;7.188;2022-07-11T12:02:09;12.70;;;11.63;;
9938;SDS011;5008;50.656;7.188;2022-07-11T12:04:36;12.32;;;11.27;;
9938;SDS011;5008;50.656;7.188;2022-07-11T12:07:04;11.05;;;10.25;;
9938;SDS011;5008;50.656;7.188;2022-07-11T12:09:31;10.77;;;9.88;;
9938;SDS011;5008;50.656;7.188;2022-07-11T12:12:20;10.63;;;9.82;;
9938;SDS011;5008;50.656;7.188;2022-07-11T12:15:06;11.13;;;10.23;;
9938;SDS011;5008;50.656;7.188;2022-07-11T12:17:49;11.00;;;10.20;;
9938;SDS011;5008;50.656;7.188;2022-07-11T12:20:32;10.63;;;9.65;;
9938;SDS011;5008;50.656;7.188;2022-07-11T12:23:03;10.13;;;9.32;;
9938;SDS011;5008;50.656;7.188;2022-07-11T12:25:32;8.90;;;8.23;;
9938;SDS011;5008;50.656;7.188;2022-07-11T12:28:01;9.57;;;8.68;;
9938;SDS011;5008;50.656;7.188;2022-07-11T12:30:28;10.23;;;9.40;;
9938;SDS011;5008;50.656;7.188;2022-07-11T12:33:01;11.07;;;10.05;;
9938;SDS011;5008;50.656;7.188;2022-07-11T12:35:29;9.95;;;9.15;;
9938;SDS011;5008;50.656;7.188;2022-07-11T12:37:56;11.38;;;10.40;;
9938;SDS011;5008;50.656;7.188;2022-07-11T12:40:23;12.85;;;11.75;;
9938;SDS011;5008;50.656;7.188;2022-07-11T12:42:50;13.68;;;12.57;;
9938;SDS011;5008;50.656;7.188;2022-07-11T12:45:18;13.32;;;12.23;;
9938;SDS011;5008;50.656;7.188;2022-07-11T12:53:45;14.18;;;12.98;;
9938;SDS011;5008;50.656;7.188;2022-07-11T12:56:21;11.93;;;10.80;;
9938;SDS011;5008;50.656;7.188;2022-07-11T12:58:48;9.18;;;8.48;;
9938;SDS011;5008;50.656;7.188;2022-07-11T13:01:16;8.88;;;8.23;;
9938;SDS011;5008;50.656;7.188;2022-07-11T13:03:43;8.80;;;7.95;;
9938;SDS011;5008;50.656;7.188;2022-07-11T13:06:10;8.82;;;8.13;;
9938;SDS011;5008;50.656;7.188;2022-07-11T13:08:37;9.20;;;8.35;;
9938;SDS011;5008;50.656;7.188;2022-07-11T13:11:11;9.18;;;8.30;;
9938;SDS011;5008;50.656;7.188;2022-07-11T13:13:39;8.65;;;7.95;;
9938;SDS011;5008;50.656;7.188;2022-07-11T13:16:06;8.65;;;7.90;;
9938;SDS011;5008;50.656;7.188;2022-07-11T13:18:35;9.15;;;8.45;;
9938;SDS011;5008;50.656;7.188;2022-07-11T13:21:02;9.13;;;8.40;;
9938;SDS011;5008;50.656;7.188;2022-07-11T13:23:29;9.82;;;8.93;;
9938;SDS011;5008;50.656;7.188;2022-07-11T13:25:57;8.38;;;7.78;;
9938;SDS011;5008;50.656;7.188;2022-07-11T13:28:24;8.98;;;8.27;;
9938;SDS011;5008;50.656;7.188;2022-07-11T13:30:51;9.20;;;8.40;;
9938;SDS011;5008;50.656;7.188;2022-07-11T13:33:18;10.52;;;9.52;;
9938;SDS011;5008;50.656;7.188;2022-07-11T13:35:46;10.07;;;9.10;;
9938;SDS011;5008;50.656;7.188;2022-07-11T13:38:14;10.45;;;9.52;;
9938;SDS011;5008;50.656;7.188;2022-07-11T13:40:41;10.90;;;9.90;;
9938;SDS011;5008;50.656;7.188;2022-07-11T13:43:08;10.93;;;10.00;;
9938;SDS011;5008;50.656;7.188;2022-07-11T13:45:37;10.68;;;9.60;;
9938;SDS011;5008;50.656;7.188;2022-07-11T13:48:05;10.73;;;9.45;;
9938;SDS011;5008;50.656;7.188;2022-07-11T13:50:32;11.63;;;10.73;;
9938;SDS011;5008;50.656;7.188;2022-07-11T13:53:00;10.95;;;10.05;;
9938;SDS011;5008;50.656;7.188;2022-07-11T13:55:27;11.73;;;10.73;;
9938;SDS011;5008;50.656;7.188;2022-07-11T13:57:54;10.57;;;9.57;;
9938;SDS011;5008;50.656;7.188;2022-07-11T14:00:22;11.07;;;10.18;;
9938;SDS011;5008;50.656;7.188;2022-07-11T14:02:49;10.75;;;9.75;;
9938;SDS011;5008;50.656;7.188;2022-07-11T14:05:17;10.10;;;9.30;;
9938;SDS011;5008;50.656;7.188;2022-07-11T14:07:44;11.90;;;10.73;;
9938;SDS011;5008;50.656;7.188;2022-07-11T14:10:13;11.57;;;10.57;;
9938;SDS011;5008;50.656;7.188;2022-07-11T14:12:40;13.25;;;12.25;;
9938;SDS011;5008;50.656;7.188;2022-07-11T14:15:07;12.70;;;11.63;;
9938;SDS011;5008;50.656;7.188;2022-07-11T14:17:35;12.35;;;11.25;;
9938;SDS011;5008;50.656;7.188;2022-07-11T14:20:02;12.07;;;11.07;;
9938;SDS011;5008;50.656;7.188;2022-07-11T14:22:29;13.52;;;12.30;;
9938;SDS011;5008;50.656;7.188;2022-07-11T14:24:56;13.30;;;12.18;;
9938;SDS011;5008;50.656;7.188;2022-07-11T14:27:24;13.45;;;12.35;;
9938;SDS011;5008;50.656;7.188;2022-07-11T14:29:51;13.88;;;12.65;;
9938;SDS011;5008;50.656;7.188;2022-07-11T14:32:18;12.82;;;11.82;;
9938;SDS011;5008;50.656;7.188;2022-07-11T14:34:45;13.25;;;12.13;;
9938;SDS011;5008;50.656;7.188;2022-07-11T14:37:12;13.50;;;12.40;;
9938;SDS011;5008;50.656;7.188;2022-07-11T14:39:39;14.23;;;13.13;;
9938;SDS011;5008;50.656;7.188;2022-07-11T14:42:05;15.27;;;13.82;;
9938;SDS011;5008;50.656;7.188;2022-07-11T14:44:34;15.27;;;13.98;;
9938;SDS011;5008;50.656;7.188;2022-07-11T14:47:01;15.88;;;14.48;;
9938;SDS011;5008;50.656;7.188;2022-07-11T14:49:28;15.93;;;14.63;;
9938;SDS011;5008;50.656;7.188;2022-07-11T14:51:55;15.43;;;14.07;;
9938;SDS011;5008;50.656;7.188;2022-07-11T14:54:22;16.25;;;14.95;;
9938;SDS011;5008;50.656;7.188;2022-07-11T14:56:49;16.13;;;14.63;;
9938;SDS011;5008;50.656;7.188;2022-07-11T14:59:16;15.40;;;13.98;;
9938;SDS011;5008;50.656;7.188;2022-07-11T15:01:44;17.17;;;15.77;;
9938;SDS011;5008;50.656;7.188;2022-07-11T15:04:11;15.15;;;13.95;;
9938;SDS011;5008;50.656;7.188;2022-07-11T15:06:38;17.27;;;15.70;;
9938;SDS011;5008;50.656;7.188;2022-07-11T15:09:22;17.65;;;16.02;;
9938;SDS011;5008;50.656;7.188;2022-07-11T15:12:06;17.63;;;16.02;;
9938;SDS011;5008;50.656;7.188;2022-07-11T15:14:53;16.95;;;15.55;;
9938;SDS011;5008;50.656;7.188;2022-07-11T15:17:21;17.73;;;16.15;;
9938;SDS011;5008;50.656;7.188;2022-07-11T15:19:49;16.35;;;14.95;;
9938;SDS011;5008;50.656;7.188;2022-07-11T15:22:17;16.52;;;15.13;;